Fairmount Heights, Maryland
Current Conditions -  °F | °C
As of 7:58 PM on Friday 24 Oct 2014 (Local Time) from KADW Reporting Station
Clear Clear  
Wind Chill: 60°   Ceiling: Unl
Heat Index: 60°   Visibility: 10mi
Dew Point: 40°   Wind: 10mph
Humidity: 47%   Direction: 280°W
Pressure: 29.92"   Gusts: NA
Location:  38.8854°N, 76.8965°W
Report Text: KADW 242358Z AUTO 28009KT 10SM CLR 16/04 A2992 RMK AO2 SLP138 T01550042 10195 20154 52012 $
Loading
Personal Weather Stations






























Interactive Weather Map
Tropical Storm Tracking
New forecast layout! Learn more

10-Day Weather Forecast

Advertisements
Track Severe Weather on mobile